createdAt,value
2019-03-26T00:00:48.598Z,1.20
2019-03-26T00:03:18.233Z,1.10
2019-03-26T00:05:47.874Z,1.40
2019-03-26T00:08:17.511Z,1.30
2019-03-26T00:10:47.121Z,1.10
2019-03-26T00:13:16.663Z,1.10
2019-03-26T00:15:46.265Z,1.17
2019-03-26T00:18:15.883Z,1.20
2019-03-26T00:20:45.483Z,1.20
2019-03-26T00:23:14.946Z,1.10
2019-03-26T00:25:44.543Z,1.10
2019-03-26T00:28:14.150Z,1.27
2019-03-26T00:30:43.748Z,1.50
2019-03-26T00:33:13.365Z,1.17
2019-03-26T00:35:42.981Z,1.10
2019-03-26T00:38:12.580Z,1.20
2019-03-26T00:40:42.121Z,1.00
2019-03-26T00:43:11.731Z,1.00
2019-03-26T00:45:41.351Z,1.07
2019-03-26T00:48:10.940Z,1.20
2019-03-26T00:50:40.582Z,1.00
2019-03-26T00:53:10.203Z,1.10
2019-03-26T00:55:39.837Z,1.00
2019-03-26T00:58:09.361Z,1.00
2019-03-26T01:00:44.088Z,1.20
2019-03-26T01:03:13.684Z,1.20
2019-03-26T01:05:43.307Z,1.10
2019-03-26T01:08:12.904Z,0.90
2019-03-26T01:10:42.546Z,1.00
2019-03-26T01:13:12.165Z,1.10
2019-03-26T01:15:41.780Z,0.90
2019-03-26T01:18:11.375Z,1.10
2019-03-26T01:20:41.227Z,1.20
2019-03-26T01:23:10.817Z,1.37
2019-03-26T01:25:40.471Z,1.20
2019-03-26T01:28:10.069Z,1.40
2019-03-26T01:30:39.693Z,1.60
2019-03-26T01:33:09.288Z,1.30
2019-03-26T01:35:38.905Z,1.30
2019-03-26T01:38:08.500Z,1.27
2019-03-26T01:40:38.123Z,1.10
2019-03-26T01:43:07.727Z,1.50
2019-03-26T01:45:37.338Z,1.60
2019-03-26T01:48:06.941Z,1.37
2019-03-26T01:50:36.560Z,1.10
2019-03-26T01:53:06.163Z,1.40
2019-03-26T01:55:35.784Z,1.20
2019-03-26T01:58:05.396Z,1.40
2019-03-26T02:00:35.069Z,1.43
2019-03-26T02:03:04.696Z,1.60
2019-03-26T02:05:34.374Z,1.20
2019-03-26T02:08:03.970Z,1.50
2019-03-26T02:10:33.694Z,1.50
2019-03-26T02:13:03.318Z,1.57
2019-03-26T02:15:33.882Z,1.80
2019-03-26T02:18:03.489Z,1.97
2019-03-26T02:20:33.169Z,1.63
2019-03-26T02:23:02.883Z,2.50
2019-03-26T02:25:32.509Z,2.70
2019-03-26T02:28:02.107Z,2.60
2019-03-26T02:30:31.751Z,3.47
2019-03-26T02:33:01.271Z,3.10
2019-03-26T02:35:30.904Z,2.50
2019-03-26T02:38:00.498Z,2.40
2019-03-26T02:40:30.122Z,2.53
2019-03-26T02:42:59.641Z,3.40
2019-03-26T02:45:29.270Z,3.73
2019-03-26T02:47:58.875Z,2.67
2019-03-26T02:50:28.608Z,2.73
2019-03-26T02:52:58.473Z,2.57
2019-03-26T02:55:28.106Z,2.90
2019-03-26T02:57:57.717Z,3.27
2019-03-26T03:00:27.343Z,4.70
2019-03-26T03:02:57.063Z,4.63
2019-03-26T03:05:34.995Z,3.43
2019-03-26T03:07:58.092Z,3.10
2019-03-26T03:10:27.686Z,2.50
2019-03-26T03:12:57.286Z,3.00
2019-03-26T03:15:26.908Z,6.13
2019-03-26T03:17:56.501Z,5.23
2019-03-26T03:20:26.248Z,6.93
2019-03-26T03:22:55.802Z,6.87
2019-03-26T03:25:25.443Z,8.37
2019-03-26T03:27:55.044Z,7.57
2019-03-26T03:30:24.676Z,8.33
2019-03-26T03:32:54.285Z,7.90
2019-03-26T03:35:23.904Z,9.43
2019-03-26T03:37:53.527Z,10.93
2019-03-26T03:40:23.154Z,9.50
2019-03-26T03:42:52.757Z,9.90
2019-03-26T03:45:30.037Z,8.77
2019-03-26T03:48:00.973Z,11.70
2019-03-26T03:50:32.757Z,11.23
2019-03-26T03:53:02.664Z,11.27
2019-03-26T03:55:33.219Z,11.23
2019-03-26T03:58:03.383Z,9.90
2019-03-26T04:00:41.870Z,11.27
2019-03-26T04:03:11.841Z,10.40
2019-03-26T04:05:41.586Z,10.77
2019-03-26T04:08:11.192Z,10.23
2019-03-26T04:10:40.853Z,10.93
2019-03-26T04:13:10.465Z,11.57
2019-03-26T04:15:40.115Z,12.13
2019-03-26T04:18:09.735Z,9.73
2019-03-26T04:20:39.369Z,13.10
2019-03-26T04:23:08.986Z,10.93
2019-03-26T04:25:38.623Z,11.10
2019-03-26T04:28:08.310Z,9.80
2019-03-26T04:30:38.538Z,9.80
2019-03-26T04:33:08.141Z,8.03
2019-03-26T04:35:37.764Z,8.50
2019-03-26T04:38:07.370Z,7.67
2019-03-26T04:40:37.001Z,6.57
2019-03-26T04:43:06.625Z,7.90
2019-03-26T04:45:36.247Z,5.47
2019-03-26T04:48:05.962Z,7.07
2019-03-26T04:50:35.589Z,5.53
2019-03-26T04:53:05.220Z,5.60
2019-03-26T04:55:35.179Z,4.07
2019-03-26T04:58:04.797Z,4.00
2019-03-26T05:00:34.419Z,3.93
2019-03-26T05:03:04.035Z,4.10
2019-03-26T05:05:33.658Z,4.07
2019-03-26T05:08:03.785Z,3.80
2019-03-26T05:10:33.405Z,3.80
2019-03-26T05:13:03.015Z,4.10
2019-03-26T05:15:32.639Z,3.03
2019-03-26T05:18:02.241Z,4.20
2019-03-26T05:20:31.863Z,3.97
2019-03-26T05:23:01.473Z,4.90
2019-03-26T05:25:31.104Z,4.20
2019-03-26T05:28:00.719Z,4.47
2019-03-26T05:30:33.047Z,4.23
2019-03-26T05:33:01.672Z,3.47
2019-03-26T05:35:31.260Z,3.53
2019-03-26T05:38:00.876Z,4.20
2019-03-26T05:40:30.473Z,3.30
2019-03-26T05:43:00.089Z,2.93
2019-03-26T05:45:29.695Z,3.07
2019-03-26T05:47:59.332Z,4.37
2019-03-26T05:50:28.855Z,4.20
2019-03-26T05:52:58.487Z,3.23
2019-03-26T05:55:28.086Z,4.13
2019-03-26T05:57:57.743Z,3.63
2019-03-26T06:00:27.683Z,4.40
2019-03-26T06:02:57.335Z,4.17
2019-03-26T06:05:26.948Z,3.60
2019-03-26T06:07:56.560Z,4.57
2019-03-26T06:10:26.154Z,3.27
2019-03-26T06:12:55.698Z,3.70
2019-03-26T06:15:25.307Z,3.83
2019-03-26T06:17:57.420Z,3.70
2019-03-26T06:20:26.111Z,4.00
2019-03-26T06:22:55.731Z,4.40
2019-03-26T06:25:25.336Z,4.50
2019-03-26T06:27:54.968Z,4.50
2019-03-26T06:30:24.566Z,4.43
2019-03-26T06:32:54.204Z,4.90
2019-03-26T06:35:23.746Z,4.37
2019-03-26T06:37:53.279Z,4.80
2019-03-26T06:40:22.876Z,3.67
2019-03-26T06:42:52.418Z,4.03
2019-03-26T06:45:22.034Z,4.70
2019-03-26T06:47:51.654Z,4.10
2019-03-26T06:50:21.325Z,3.50
2019-03-26T06:52:50.955Z,5.10
2019-03-26T06:55:20.485Z,3.93
2019-03-26T06:57:50.111Z,4.83
2019-03-26T07:00:29.934Z,4.50
2019-03-26T07:03:01.177Z,5.27
2019-03-26T07:05:30.793Z,3.87
2019-03-26T07:08:00.419Z,4.27
2019-03-26T07:10:30.173Z,4.27
2019-03-26T07:12:59.822Z,4.10
2019-03-26T07:15:29.421Z,2.77
2019-03-26T07:17:59.049Z,4.40
2019-03-26T07:20:28.658Z,3.27
2019-03-26T07:22:58.288Z,2.50
2019-03-26T07:25:27.810Z,2.37
2019-03-26T07:27:57.495Z,3.30
2019-03-26T07:30:46.503Z,2.80
2019-03-26T07:33:16.056Z,2.07
2019-03-26T07:35:45.664Z,3.03
2019-03-26T07:38:15.317Z,2.80
2019-03-26T07:40:44.927Z,2.97
2019-03-26T07:43:14.568Z,3.47
2019-03-26T07:45:44.175Z,3.13
2019-03-26T07:48:13.801Z,3.00
2019-03-26T07:50:43.401Z,3.00
2019-03-26T07:53:13.099Z,3.00
2019-03-26T07:55:44.065Z,2.50
2019-03-26T07:58:13.820Z,2.43
2019-03-26T08:00:43.415Z,2.83
2019-03-26T08:03:13.067Z,2.50
2019-03-26T08:05:42.670Z,2.70
2019-03-26T08:08:12.284Z,2.90
2019-03-26T08:10:41.873Z,2.57
2019-03-26T08:13:11.441Z,2.17
2019-03-26T08:15:41.144Z,3.40
2019-03-26T08:18:10.714Z,2.70
2019-03-26T08:20:40.301Z,2.80
2019-03-26T08:23:09.921Z,2.90
2019-03-26T08:25:39.521Z,2.93
2019-03-26T08:28:09.149Z,3.00
2019-03-26T08:30:38.843Z,3.17
2019-03-26T08:33:08.471Z,3.30
2019-03-26T08:35:38.079Z,2.97
2019-03-26T08:38:12.894Z,2.97
2019-03-26T08:40:39.409Z,3.00
2019-03-26T08:43:08.972Z,2.90
2019-03-26T08:45:38.577Z,3.57
2019-03-26T08:48:08.200Z,3.00
2019-03-26T08:50:37.721Z,3.10
2019-03-26T08:53:07.354Z,2.80
2019-03-26T08:55:36.964Z,2.90
2019-03-26T08:58:06.580Z,2.83
2019-03-26T09:00:36.179Z,3.03
2019-03-26T09:03:05.802Z,3.63
2019-03-26T09:05:35.422Z,3.63
2019-03-26T09:08:05.057Z,3.33
2019-03-26T09:10:34.676Z,3.80
2019-03-26T09:13:04.283Z,4.17
2019-03-26T09:15:33.914Z,4.30
2019-03-26T09:18:03.516Z,3.93
2019-03-26T09:20:33.145Z,4.37
2019-03-26T09:23:02.776Z,3.67
2019-03-26T09:25:32.381Z,4.77
2019-03-26T09:28:01.998Z,3.80
2019-03-26T09:30:31.589Z,3.33
2019-03-26T09:33:01.226Z,3.80
2019-03-26T09:35:30.851Z,4.00
2019-03-26T09:38:00.456Z,3.53
2019-03-26T09:40:30.082Z,3.17
2019-03-26T09:42:59.634Z,2.53
2019-03-26T09:45:29.236Z,2.83
2019-03-26T09:47:58.855Z,3.30
2019-03-26T09:50:35.887Z,2.53
2019-03-26T09:53:06.068Z,2.90
2019-03-26T09:55:35.676Z,2.70
2019-03-26T09:58:05.326Z,2.70
2019-03-26T10:00:35.054Z,2.70
2019-03-26T10:03:04.774Z,2.60
2019-03-26T10:05:34.389Z,2.50
2019-03-26T10:08:03.978Z,2.60
2019-03-26T10:10:33.610Z,2.70
2019-03-26T10:13:03.202Z,2.60
2019-03-26T10:15:32.821Z,2.30
2019-03-26T10:18:02.407Z,2.50
2019-03-26T10:20:32.031Z,2.50
2019-03-26T10:23:01.635Z,2.70
2019-03-26T10:25:31.269Z,2.80
2019-03-26T10:28:00.860Z,3.30
2019-03-26T10:30:38.189Z,3.67
2019-03-26T10:33:08.374Z,3.40
2019-03-26T10:35:38.119Z,3.13
2019-03-26T10:38:07.741Z,2.90
2019-03-26T10:40:38.007Z,3.00
2019-03-26T10:43:07.908Z,3.03
2019-03-26T10:45:37.527Z,3.00
2019-03-26T10:48:07.133Z,3.00
2019-03-26T10:50:36.764Z,3.83
2019-03-26T10:53:06.540Z,2.30
2019-03-26T10:55:36.166Z,2.63
2019-03-26T10:58:05.767Z,3.53
2019-03-26T11:00:35.410Z,3.40
2019-03-26T11:03:05.016Z,3.13
2019-03-26T11:05:34.651Z,3.70
2019-03-26T11:08:04.250Z,3.43
2019-03-26T11:10:33.893Z,2.67
2019-03-26T11:13:03.535Z,2.63
2019-03-26T11:15:33.126Z,2.77
2019-03-26T11:18:02.725Z,2.73
2019-03-26T11:20:32.367Z,2.30
2019-03-26T11:23:02.090Z,2.60
2019-03-26T11:25:31.822Z,2.37
2019-03-26T11:28:01.450Z,2.63
2019-03-26T11:30:31.075Z,2.43
2019-03-26T11:33:00.675Z,2.50
2019-03-26T11:35:30.306Z,2.80
2019-03-26T11:37:59.936Z,2.93
2019-03-26T11:40:29.581Z,3.70
2019-03-26T11:42:59.182Z,3.13
2019-03-26T11:45:28.811Z,2.90
2019-03-26T11:47:58.336Z,3.67
2019-03-26T11:50:27.967Z,3.30
2019-03-26T11:52:57.578Z,3.00
2019-03-26T11:55:27.212Z,3.33
2019-03-26T11:57:56.896Z,3.07
2019-03-26T12:00:31.428Z,3.03
2019-03-26T12:03:01.036Z,3.17
2019-03-26T12:05:30.719Z,3.40
2019-03-26T12:08:00.317Z,3.10
2019-03-26T12:10:29.956Z,3.50
2019-03-26T12:12:59.554Z,2.90
2019-03-26T12:15:29.180Z,3.63
2019-03-26T12:17:58.795Z,3.57
2019-03-26T12:20:28.418Z,3.90
2019-03-26T12:22:58.030Z,3.03
2019-03-26T12:25:27.742Z,2.90
2019-03-26T12:27:57.261Z,2.93
2019-03-26T12:30:34.556Z,2.50
2019-03-26T12:33:04.562Z,2.60
2019-03-26T12:35:34.198Z,2.80
2019-03-26T12:38:17.174Z,2.80
2019-03-26T12:40:46.926Z,2.60
2019-03-26T12:43:16.659Z,2.50
2019-03-26T12:45:46.778Z,2.20
2019-03-26T12:48:16.386Z,2.03
2019-03-26T12:50:46.041Z,2.10
2019-03-26T12:53:15.633Z,2.60
2019-03-26T12:55:45.256Z,3.00
2019-03-26T12:58:14.862Z,2.93
2019-03-26T13:00:44.501Z,2.60
2019-03-26T13:03:14.125Z,3.27
2019-03-26T13:05:43.751Z,3.07
2019-03-26T13:08:13.372Z,3.30
2019-03-26T13:10:52.811Z,2.83
2019-03-26T13:13:14.311Z,2.40
2019-03-26T13:15:43.941Z,2.73
2019-03-26T13:18:13.546Z,3.30
2019-03-26T13:20:43.184Z,2.70
2019-03-26T13:23:12.808Z,2.87
2019-03-26T13:25:52.705Z,2.80
2019-03-26T13:28:22.264Z,2.60
2019-03-26T13:30:51.892Z,2.50
2019-03-26T13:33:21.493Z,2.47
2019-03-26T13:35:51.136Z,3.37
2019-03-26T13:38:20.705Z,2.73
2019-03-26T13:40:50.356Z,2.43
2019-03-26T13:43:19.883Z,2.60
2019-03-26T13:45:49.584Z,2.50
2019-03-26T13:48:19.185Z,2.90
2019-03-26T13:50:48.890Z,2.90
2019-03-26T13:53:18.490Z,2.77
2019-03-26T13:55:48.119Z,2.90
2019-03-26T13:58:17.718Z,2.83
2019-03-26T14:00:47.343Z,2.40
2019-03-26T14:03:16.954Z,2.70
2019-03-26T14:05:46.580Z,3.00
2019-03-26T14:08:16.183Z,2.70
2019-03-26T14:10:45.811Z,2.60
2019-03-26T14:13:15.341Z,2.17
2019-03-26T14:15:44.952Z,3.13
2019-03-26T14:18:14.557Z,2.90
2019-03-26T14:20:44.182Z,2.83
2019-03-26T14:23:13.789Z,3.17
2019-03-26T14:25:43.339Z,2.90
2019-03-26T14:28:12.941Z,3.30
2019-03-26T14:30:44.387Z,3.23
2019-03-26T14:33:14.254Z,3.27
2019-03-26T14:35:43.932Z,3.27
2019-03-26T14:38:13.548Z,2.90
2019-03-26T14:40:54.118Z,3.00
2019-03-26T14:43:14.519Z,2.80
2019-03-26T14:45:44.126Z,2.27
2019-03-26T14:48:13.755Z,2.30
2019-03-26T14:50:43.352Z,3.23
2019-03-26T14:53:12.975Z,2.60
2019-03-26T14:55:42.579Z,2.60
2019-03-26T14:58:12.210Z,2.90
2019-03-26T15:00:41.811Z,3.20
2019-03-26T15:03:11.448Z,2.70
2019-03-26T15:05:40.966Z,2.53
2019-03-26T15:08:10.592Z,2.30
2019-03-26T15:10:40.205Z,2.30
2019-03-26T15:13:09.834Z,2.20
2019-03-26T15:15:39.441Z,2.13
2019-03-26T15:18:09.070Z,1.77
2019-03-26T15:20:38.655Z,2.20
2019-03-26T15:23:08.280Z,2.00
2019-03-26T15:25:37.887Z,2.37
2019-03-26T15:28:07.589Z,2.13
2019-03-26T15:30:37.195Z,2.33
2019-03-26T15:33:07.290Z,2.27
2019-03-26T15:35:36.819Z,2.10
2019-03-26T15:38:06.447Z,2.93
2019-03-26T15:40:36.079Z,3.20
2019-03-26T15:43:05.711Z,2.40
2019-03-26T15:45:35.308Z,3.47
2019-03-26T15:48:04.953Z,3.43
2019-03-26T15:50:52.702Z,2.93
2019-03-26T15:53:22.328Z,2.93
2019-03-26T15:55:51.918Z,2.87
2019-03-26T15:58:21.546Z,2.13
2019-03-26T16:00:51.142Z,2.63
2019-03-26T16:03:22.503Z,2.20
2019-03-26T16:05:52.396Z,2.30
2019-03-26T16:08:22.019Z,2.10
2019-03-26T16:10:51.645Z,2.33
2019-03-26T16:13:21.242Z,2.13
2019-03-26T16:15:51.898Z,2.03
2019-03-26T16:18:21.641Z,2.20
2019-03-26T16:20:51.166Z,2.00
2019-03-26T16:23:20.807Z,2.10
2019-03-26T16:25:50.423Z,2.07
2019-03-26T16:28:19.983Z,1.70
2019-03-26T16:30:49.625Z,1.47
2019-03-26T16:33:20.712Z,1.73
2019-03-26T16:35:50.312Z,1.80
2019-03-26T16:38:19.938Z,1.93
2019-03-26T16:40:54.508Z,1.80
2019-03-26T16:43:24.117Z,1.93
2019-03-26T16:45:53.711Z,2.00
2019-03-26T16:48:23.327Z,1.90
2019-03-26T16:50:52.935Z,1.70
2019-03-26T16:53:22.559Z,1.50
2019-03-26T16:55:52.167Z,2.30
2019-03-26T16:58:21.820Z,2.30
2019-03-26T17:00:54.204Z,2.50
2019-03-26T17:03:31.339Z,2.77
2019-03-26T17:05:55.849Z,2.93
2019-03-26T17:08:25.479Z,3.20
2019-03-26T17:10:55.083Z,2.20
2019-03-26T17:13:24.733Z,1.80
2019-03-26T17:15:54.325Z,1.90
2019-03-26T17:18:24.459Z,1.70
2019-03-26T17:20:54.055Z,1.40
2019-03-26T17:23:23.691Z,1.53
2019-03-26T17:25:53.288Z,1.20
2019-03-26T17:28:22.834Z,1.50
2019-03-26T17:30:52.443Z,2.50
2019-03-26T17:33:23.796Z,2.77
2019-03-26T17:35:53.403Z,2.77
2019-03-26T17:38:23.022Z,2.07
2019-03-26T17:40:52.697Z,2.43
2019-03-26T17:43:22.164Z,2.30
2019-03-26T17:45:51.762Z,2.47
2019-03-26T17:48:21.395Z,2.50
2019-03-26T17:50:50.914Z,2.03
2019-03-26T17:53:20.546Z,2.20
2019-03-26T17:55:50.150Z,1.97
2019-03-26T17:58:19.794Z,1.87
2019-03-26T18:00:49.393Z,2.00
2019-03-26T18:03:26.197Z,1.80
2019-03-26T18:05:50.440Z,1.80
2019-03-26T18:08:20.065Z,1.63
2019-03-26T18:10:49.665Z,1.57
2019-03-26T18:13:19.283Z,1.77
2019-03-26T18:15:48.894Z,2.13
2019-03-26T18:18:18.517Z,2.00
2019-03-26T18:20:48.114Z,1.50
2019-03-26T18:23:17.742Z,1.60
2019-03-26T18:25:47.340Z,1.50
2019-03-26T18:28:16.963Z,1.50
2019-03-26T18:30:46.562Z,1.57
2019-03-26T18:33:16.181Z,1.77
2019-03-26T18:35:45.781Z,1.30
2019-03-26T18:38:15.414Z,2.00
2019-03-26T18:40:45.043Z,1.83
2019-03-26T18:43:14.660Z,2.20
2019-03-26T18:45:44.282Z,1.70
2019-03-26T18:48:13.900Z,1.90
2019-03-26T18:50:43.510Z,1.80
2019-03-26T18:53:13.141Z,1.70
2019-03-26T18:55:42.746Z,2.03
2019-03-26T18:58:12.367Z,1.63
2019-03-26T19:00:41.963Z,1.53
2019-03-26T19:03:11.673Z,1.60
2019-03-26T19:05:41.256Z,1.47
2019-03-26T19:08:10.878Z,1.70
2019-03-26T19:10:40.472Z,1.37
2019-03-26T19:13:19.215Z,1.60
2019-03-26T19:15:41.420Z,1.60
2019-03-26T19:18:11.041Z,1.50
2019-03-26T19:20:40.641Z,1.97
2019-03-26T19:23:10.261Z,1.43
2019-03-26T19:25:39.862Z,1.30
2019-03-26T19:28:09.486Z,1.30
2019-03-26T19:30:39.090Z,1.70
2019-03-26T19:33:08.640Z,1.30
2019-03-26T19:35:38.235Z,1.43
2019-03-26T19:38:07.836Z,1.43
2019-03-26T19:40:37.486Z,1.40
2019-03-26T19:43:11.305Z,1.03
2019-03-26T19:45:38.450Z,1.33
2019-03-26T19:48:08.131Z,1.20
2019-03-26T19:50:37.748Z,1.17
2019-03-26T19:53:07.371Z,1.20
2019-03-26T19:55:37.250Z,1.17
2019-03-26T19:58:06.839Z,1.50
2019-03-26T20:00:36.460Z,1.17
2019-03-26T20:03:06.058Z,1.50
2019-03-26T20:05:35.799Z,1.40
2019-03-26T20:08:05.982Z,1.40
2019-03-26T20:10:35.607Z,1.00
2019-03-26T20:13:05.203Z,1.27
2019-03-26T20:15:34.816Z,1.60
2019-03-26T20:18:04.418Z,1.13
2019-03-26T20:20:34.041Z,1.77
2019-03-26T20:23:03.648Z,1.30
2019-03-26T20:25:33.269Z,1.20
2019-03-26T20:28:02.874Z,1.40
2019-03-26T20:30:32.535Z,1.10
2019-03-26T20:33:02.134Z,1.37
2019-03-26T20:35:31.767Z,1.40
2019-03-26T20:38:01.365Z,1.37
2019-03-26T20:40:31.021Z,1.23
2019-03-26T20:43:00.626Z,1.10
2019-03-26T20:45:30.248Z,1.20
2019-03-26T20:47:59.851Z,1.20
2019-03-26T20:50:29.472Z,1.00
2019-03-26T20:52:59.068Z,1.20
2019-03-26T20:55:35.264Z,1.40
2019-03-26T20:58:05.330Z,1.40
2019-03-26T21:00:39.665Z,1.73
2019-03-26T21:03:09.273Z,2.33
2019-03-26T21:05:38.936Z,2.03
2019-03-26T21:08:08.531Z,2.40
2019-03-26T21:10:38.141Z,3.00
2019-03-26T21:13:07.737Z,2.50
2019-03-26T21:15:37.364Z,2.37
2019-03-26T21:18:06.971Z,2.00
2019-03-26T21:20:36.586Z,2.50
2019-03-26T21:23:06.300Z,3.10
2019-03-26T21:25:35.992Z,2.93
2019-03-26T21:28:06.292Z,3.90
2019-03-26T21:30:35.923Z,3.33
2019-03-26T21:33:05.520Z,3.60
2019-03-26T21:35:35.140Z,3.53
2019-03-26T21:38:04.744Z,3.40
2019-03-26T21:40:34.391Z,2.77
2019-03-26T21:43:03.985Z,3.50
2019-03-26T21:45:40.768Z,3.30
2019-03-26T21:48:11.176Z,2.63
2019-03-26T21:50:40.802Z,3.13
2019-03-26T21:53:10.400Z,2.73
2019-03-26T21:55:40.054Z,3.13
2019-03-26T21:58:09.652Z,2.37
2019-03-26T22:00:39.272Z,2.60
2019-03-26T22:03:08.871Z,2.57
2019-03-26T22:05:38.493Z,2.23
2019-03-26T22:08:08.104Z,2.40
2019-03-26T22:10:37.724Z,2.30
2019-03-26T22:13:07.324Z,1.70
2019-03-26T22:15:36.953Z,1.83
2019-03-26T22:18:06.554Z,2.00
2019-03-26T22:20:36.167Z,1.60
2019-03-26T22:23:05.938Z,1.67
2019-03-26T22:25:35.868Z,1.83
2019-03-26T22:28:05.467Z,1.80
2019-03-26T22:30:35.011Z,1.87
2019-03-26T22:33:04.606Z,1.80
2019-03-26T22:35:34.245Z,1.40
2019-03-26T22:38:03.858Z,1.70
2019-03-26T22:40:33.495Z,1.43
2019-03-26T22:43:03.092Z,1.50
2019-03-26T22:45:32.729Z,1.77
2019-03-26T22:48:02.324Z,1.30
2019-03-26T22:50:31.944Z,1.70
2019-03-26T22:53:01.558Z,1.27
2019-03-26T22:55:31.180Z,1.77
2019-03-26T22:58:00.775Z,1.43
2019-03-26T23:00:35.446Z,1.70
2019-03-26T23:03:06.087Z,2.00
2019-03-26T23:05:35.833Z,2.20
2019-03-26T23:08:05.423Z,2.00
2019-03-26T23:10:35.042Z,2.10
2019-03-26T23:13:04.642Z,2.43
2019-03-26T23:15:34.273Z,2.13
2019-03-26T23:18:03.875Z,1.90
2019-03-26T23:20:33.493Z,2.33
2019-03-26T23:23:03.100Z,2.50
2019-03-26T23:25:32.739Z,2.37
2019-03-26T23:28:02.342Z,2.50
2019-03-26T23:30:31.961Z,2.20
2019-03-26T23:33:01.551Z,2.73
2019-03-26T23:35:31.180Z,3.37
2019-03-26T23:38:00.785Z,2.43
2019-03-26T23:40:30.434Z,3.00
2019-03-26T23:43:00.034Z,2.23
2019-03-26T23:45:29.583Z,1.97
2019-03-26T23:47:59.182Z,1.80
2019-03-26T23:50:28.723Z,1.50
2019-03-26T23:52:58.320Z,1.57
2019-03-26T23:55:27.948Z,1.90
2019-03-26T23:57:57.555Z,1.83
